createdAt,value
2023-01-04T00:00:42.586Z,1015.67
2023-01-04T00:01:42.450Z,1015.66
2023-01-04T00:02:42.588Z,1015.61
2023-01-04T00:03:42.587Z,1015.57
2023-01-04T00:04:42.367Z,1015.54
2023-01-04T00:05:42.353Z,1015.54
2023-01-04T00:06:42.316Z,1015.56
2023-01-04T00:07:42.295Z,1015.48
2023-01-04T00:08:42.282Z,1015.46
2023-01-04T00:09:42.243Z,1015.47
2023-01-04T00:10:42.217Z,1015.43
2023-01-04T00:11:42.218Z,1015.41
2023-01-04T00:12:42.165Z,1015.38
2023-01-04T00:13:42.171Z,1015.34
2023-01-04T00:14:42.123Z,1015.34
2023-01-04T00:15:42.148Z,1015.27
2023-01-04T00:16:42.120Z,1015.35
2023-01-04T00:17:42.041Z,1015.29
2023-01-04T00:18:42.015Z,1015.30
2023-01-04T00:19:41.985Z,1015.30
2023-01-04T00:20:41.954Z,1015.34
2023-01-04T00:21:41.934Z,1015.27
2023-01-04T00:22:41.910Z,1015.25
2023-01-04T00:23:41.906Z,1015.20
2023-01-04T00:24:41.853Z,1015.24
2023-01-04T00:25:41.832Z,1015.23
2023-01-04T00:26:41.796Z,1015.12
2023-01-04T00:27:41.910Z,1015.12
2023-01-04T00:28:41.746Z,1015.04
2023-01-04T00:29:41.724Z,1015.00
2023-01-04T00:30:41.759Z,1014.95
2023-01-04T00:31:41.781Z,1014.88
2023-01-04T00:32:41.643Z,1014.89
2023-01-04T00:33:41.622Z,1014.85
2023-01-04T00:34:41.590Z,1014.92
2023-01-04T00:35:46.381Z,1014.89
2023-01-04T00:36:41.539Z,1014.87
2023-01-04T00:37:44.587Z,1014.87
2023-01-04T00:38:41.483Z,1014.89
2023-01-04T00:39:41.467Z,1014.85
2023-01-04T00:40:41.439Z,1014.87
2023-01-04T00:42:41.383Z,1014.76
2023-01-04T00:43:41.383Z,1014.75
2023-01-04T00:44:41.333Z,1014.71
2023-01-04T00:45:41.304Z,1014.65
2023-01-04T00:46:41.324Z,1014.67
2023-01-04T00:47:41.262Z,1014.64
2023-01-04T00:48:44.960Z,1014.61
2023-01-04T00:49:41.209Z,1014.63
2023-01-04T00:50:41.175Z,1014.54
2023-01-04T00:51:41.157Z,1014.47
2023-01-04T00:52:41.126Z,1014.48
2023-01-04T00:53:41.101Z,1014.43
2023-01-04T00:54:41.073Z,1014.44
2023-01-04T00:55:41.050Z,1014.41
2023-01-04T00:56:41.026Z,1014.33
2023-01-04T00:57:40.994Z,1014.33
2023-01-04T00:58:40.963Z,1014.22
2023-01-04T00:59:40.964Z,1014.21
2023-01-04T01:00:40.912Z,1014.18
2023-01-04T01:01:41.071Z,1014.20
2023-01-04T01:02:41.103Z,1014.18
2023-01-04T01:03:40.999Z,1014.19
2023-01-04T01:04:40.822Z,1014.08
2023-01-04T01:05:40.792Z,1014.15
2023-01-04T01:06:40.752Z,1014.23
2023-01-04T01:07:40.743Z,1014.13
2023-01-04T01:08:40.712Z,1014.14
2023-01-04T01:09:40.682Z,1014.12
2023-01-04T01:10:40.662Z,1014.07
2023-01-04T01:11:40.651Z,1014.05
2023-01-04T01:12:40.601Z,1014.01
2023-01-04T01:13:40.585Z,1014.04
2023-01-04T01:14:40.548Z,1013.99
2023-01-04T01:15:40.556Z,1013.97
2023-01-04T01:16:58.119Z,1014.01
2023-01-04T01:17:40.477Z,1013.97
2023-01-04T01:18:40.455Z,1014.00
2023-01-04T01:19:40.429Z,1013.95
2023-01-04T01:20:40.395Z,1013.98
2023-01-04T01:21:40.375Z,1013.95
2023-01-04T01:22:40.342Z,1013.98
2023-01-04T01:23:40.324Z,1014.00
2023-01-04T01:24:40.288Z,1013.94
2023-01-04T01:25:40.271Z,1013.86
2023-01-04T01:26:40.233Z,1013.84
2023-01-04T01:27:40.218Z,1013.78
2023-01-04T01:28:40.188Z,1013.92
2023-01-04T01:29:40.162Z,1013.80
2023-01-04T01:30:40.139Z,1013.82
2023-01-04T01:31:40.233Z,1013.86
2023-01-04T01:32:40.084Z,1013.75
2023-01-04T01:33:40.061Z,1013.78
2023-01-04T01:34:40.042Z,1013.67
2023-01-04T01:35:40.010Z,1013.72
2023-01-04T01:36:39.987Z,1013.75
2023-01-04T01:37:39.963Z,1013.72
2023-01-04T01:38:39.931Z,1013.72
2023-01-04T01:39:39.901Z,1013.71
2023-01-04T01:40:39.870Z,1013.67
2023-01-04T01:41:39.864Z,1013.72
2023-01-04T01:42:39.821Z,1013.68
2023-01-04T01:43:39.807Z,1013.53
2023-01-04T01:44:39.772Z,1013.64
2023-01-04T01:45:39.751Z,1013.61
2023-01-04T01:46:39.814Z,1013.51
2023-01-04T01:47:39.715Z,1013.49
2023-01-04T01:48:39.670Z,1013.53
2023-01-04T01:49:39.643Z,1013.55
2023-01-04T01:50:39.627Z,1013.55
2023-01-04T01:51:39.594Z,1013.53
2023-01-04T01:52:39.572Z,1013.45
2023-01-04T01:53:39.538Z,1013.43
2023-01-04T01:54:39.513Z,1013.43
2023-01-04T01:55:39.490Z,1013.45
2023-01-04T01:56:39.459Z,1013.43
2023-01-04T01:57:39.439Z,1013.35
2023-01-04T01:58:39.412Z,1013.46
2023-01-04T01:59:39.389Z,1013.33
2023-01-04T02:00:39.360Z,1013.36
2023-01-04T02:01:39.390Z,1013.26
2023-01-04T02:02:39.550Z,1013.32
2023-01-04T02:03:39.367Z,1013.34
2023-01-04T02:04:39.257Z,1013.24
2023-01-04T02:05:39.230Z,1013.22
2023-01-04T02:06:39.207Z,1013.27
2023-01-04T02:07:39.183Z,1013.27
2023-01-04T02:08:39.153Z,1013.21
2023-01-04T02:09:39.135Z,1013.26
2023-01-04T02:10:39.109Z,1013.22
2023-01-04T02:11:39.079Z,1013.30
2023-01-04T02:12:39.053Z,1013.21
2023-01-04T02:13:39.029Z,1013.16
2023-01-04T02:14:38.989Z,1013.13
2023-01-04T02:15:39.026Z,1013.20
2023-01-04T02:16:38.936Z,1013.12
2023-01-04T02:17:38.931Z,1013.11
2023-01-04T02:18:38.883Z,1013.19
2023-01-04T02:19:38.881Z,1013.07
2023-01-04T02:20:38.840Z,1013.16
2023-01-04T02:21:38.813Z,1013.14
2023-01-04T02:22:38.798Z,1013.07
2023-01-04T02:23:38.784Z,1013.11
2023-01-04T02:24:38.733Z,1013.08
2023-01-04T02:25:38.709Z,1013.09
2023-01-04T02:26:38.688Z,1013.00
2023-01-04T02:27:38.658Z,1013.04
2023-01-04T02:28:38.625Z,1013.04
2023-01-04T02:29:38.608Z,1013.00
2023-01-04T02:30:38.599Z,1013.04
2023-01-04T02:31:38.631Z,1013.07
2023-01-04T02:32:38.529Z,1013.00
2023-01-04T02:33:38.508Z,1013.01
2023-01-04T02:34:38.478Z,1012.98
2023-01-04T02:35:38.467Z,1013.02
2023-01-04T02:36:38.421Z,1012.93
2023-01-04T02:37:38.390Z,1012.94
2023-01-04T02:38:38.366Z,1012.94
2023-01-04T02:39:38.349Z,1012.88
2023-01-04T02:40:38.313Z,1012.86
2023-01-04T02:41:38.288Z,1012.79
2023-01-04T02:42:38.258Z,1012.77
2023-01-04T02:43:38.235Z,1012.72
2023-01-04T02:44:38.207Z,1012.63
2023-01-04T02:45:38.195Z,1012.62
2023-01-04T02:46:38.227Z,1012.63
2023-01-04T02:47:38.138Z,1012.55
2023-01-04T02:48:38.106Z,1012.56
2023-01-04T02:49:38.085Z,1012.46
2023-01-04T02:50:38.064Z,1012.53
2023-01-04T02:51:38.054Z,1012.56
2023-01-04T02:52:37.996Z,1012.56
2023-01-04T02:53:37.982Z,1012.52
2023-01-04T02:54:37.946Z,1012.44
2023-01-04T02:55:37.921Z,1012.50
2023-01-04T02:56:37.889Z,1012.33
2023-01-04T02:57:37.877Z,1012.46
2023-01-04T02:58:37.841Z,1012.29
2023-01-04T02:59:37.821Z,1012.26
2023-01-04T03:00:37.789Z,1012.19
2023-01-04T03:01:37.914Z,1012.26
2023-01-04T03:02:37.893Z,1012.23
2023-01-04T03:03:37.809Z,1012.18
2023-01-04T03:04:37.685Z,1012.29
2023-01-04T03:05:37.665Z,1012.26
2023-01-04T03:06:37.638Z,1012.18
2023-01-04T03:07:37.660Z,1012.15
2023-01-04T03:08:37.583Z,1012.08
2023-01-04T03:09:37.558Z,1012.03
2023-01-04T03:10:37.533Z,1012.02
2023-01-04T03:11:37.501Z,1012.22
2023-01-04T03:12:37.476Z,1012.29
2023-01-04T03:13:37.451Z,1012.23
2023-01-04T03:14:37.421Z,1012.11
2023-01-04T03:15:37.412Z,1011.99
2023-01-04T03:16:37.412Z,1011.84
2023-01-04T03:17:37.351Z,1011.82
2023-01-04T03:18:37.318Z,1011.97
2023-01-04T03:19:37.298Z,1012.02
2023-01-04T03:20:37.269Z,1011.99
2023-01-04T03:21:37.241Z,1011.92
2023-01-04T03:22:37.229Z,1011.90
2023-01-04T03:23:37.213Z,1011.84
2023-01-04T03:24:37.164Z,1011.75
2023-01-04T03:25:37.149Z,1011.79
2023-01-04T03:26:37.107Z,1011.78
2023-01-04T03:27:37.084Z,1011.71
2023-01-04T03:28:37.056Z,1011.81
2023-01-04T03:29:37.031Z,1011.79
2023-01-04T03:30:37.007Z,1011.73
2023-01-04T03:31:37.039Z,1011.74
2023-01-04T03:32:36.966Z,1011.77
2023-01-04T03:33:36.929Z,1011.70
2023-01-04T03:34:36.898Z,1011.64
2023-01-04T03:35:36.873Z,1011.70
2023-01-04T03:36:36.842Z,1011.63
2023-01-04T03:37:36.825Z,1011.73
2023-01-04T03:38:36.793Z,1011.66
2023-01-04T03:39:36.793Z,1011.62
2023-01-04T03:40:36.741Z,1011.50
2023-01-04T03:41:36.720Z,1011.52
2023-01-04T03:42:36.691Z,1011.66
2023-01-04T03:43:36.667Z,1011.60
2023-01-04T03:44:36.635Z,1011.62
2023-01-04T03:45:36.615Z,1011.58
2023-01-04T03:46:36.621Z,1011.56
2023-01-04T03:47:36.565Z,1011.52
2023-01-04T03:48:36.537Z,1011.50
2023-01-04T03:49:36.518Z,1011.43
2023-01-04T03:50:36.488Z,1011.48
2023-01-04T03:51:36.458Z,1011.37
2023-01-04T03:52:36.424Z,1011.41
2023-01-04T03:53:36.410Z,1011.39
2023-01-04T03:54:36.387Z,1011.43
2023-01-04T03:55:36.375Z,1011.48
2023-01-04T03:56:36.340Z,1011.38
2023-01-04T03:57:36.300Z,1011.36
2023-01-04T03:58:36.278Z,1011.36
2023-01-04T03:59:36.247Z,1011.32
2023-01-04T04:00:36.260Z,1011.41
2023-01-04T04:01:36.371Z,1011.35
2023-01-04T04:02:36.169Z,1011.24
2023-01-04T04:03:36.227Z,1011.18
2023-01-04T04:04:36.138Z,1011.19
2023-01-04T04:05:36.097Z,1011.20
2023-01-04T04:06:36.107Z,1011.14
2023-01-04T04:07:36.137Z,1011.11
2023-01-04T04:08:36.046Z,1011.05
2023-01-04T04:09:35.984Z,1011.05
2023-01-04T04:10:35.963Z,1010.98
2023-01-04T04:11:36.007Z,1010.94
2023-01-04T04:12:35.923Z,1010.85
2023-01-04T04:13:35.924Z,1010.94
2023-01-04T04:14:35.887Z,1010.97
2023-01-04T04:15:35.837Z,1010.81
2023-01-04T04:16:35.846Z,1010.84
2023-01-04T04:17:35.786Z,1010.79
2023-01-04T04:18:35.761Z,1010.78
2023-01-04T04:19:35.723Z,1010.74
2023-01-04T04:20:35.698Z,1010.63
2023-01-04T04:21:35.668Z,1010.68
2023-01-04T04:22:35.645Z,1010.73
2023-01-04T04:23:35.615Z,1010.69
2023-01-04T04:24:35.621Z,1010.71
2023-01-04T04:25:35.569Z,1010.56
2023-01-04T04:26:35.542Z,1010.63
2023-01-04T04:27:35.533Z,1010.55
2023-01-04T04:28:35.531Z,1010.69
2023-01-04T04:29:35.468Z,1010.57
2023-01-04T04:30:35.445Z,1010.58
2023-01-04T04:31:35.449Z,1010.65
2023-01-04T04:32:35.389Z,1010.60
2023-01-04T04:33:35.407Z,1010.58
2023-01-04T04:34:35.338Z,1010.55
2023-01-04T04:35:35.308Z,1010.66
2023-01-04T04:36:35.289Z,1010.64
2023-01-04T04:37:35.255Z,1010.66
2023-01-04T04:38:35.231Z,1010.68
2023-01-04T04:39:35.206Z,1010.64
2023-01-04T04:40:35.180Z,1010.64
2023-01-04T04:41:35.157Z,1010.67
2023-01-04T04:42:35.130Z,1010.63
2023-01-04T04:43:35.135Z,1010.66
2023-01-04T04:44:35.080Z,1010.58
2023-01-04T04:45:35.056Z,1010.58
2023-01-04T04:46:35.031Z,1010.62
2023-01-04T04:47:34.997Z,1010.61
2023-01-04T04:48:34.969Z,1010.58
2023-01-04T04:49:34.944Z,1010.59
2023-01-04T04:50:34.920Z,1010.64
2023-01-04T04:51:34.945Z,1010.59
2023-01-04T04:52:34.872Z,1010.61
2023-01-04T04:53:34.843Z,1010.64
2023-01-04T04:54:34.828Z,1010.68
2023-01-04T04:55:34.789Z,1010.71
2023-01-04T04:56:34.770Z,1010.62
2023-01-04T04:57:34.745Z,1010.59
2023-01-04T04:58:34.719Z,1010.59
2023-01-04T04:59:34.712Z,1010.58
2023-01-04T05:00:34.660Z,1010.69
2023-01-04T05:01:34.844Z,1010.61
2023-01-04T05:02:34.827Z,1010.65
2023-01-04T05:03:34.640Z,1010.61
2023-01-04T05:04:34.563Z,1010.60
2023-01-04T05:05:34.532Z,1010.58
2023-01-04T05:06:34.514Z,1010.67
2023-01-04T05:07:34.481Z,1010.73
2023-01-04T05:08:34.454Z,1010.60
2023-01-04T05:09:34.432Z,1010.61
2023-01-04T05:10:34.409Z,1010.58
2023-01-04T05:11:34.379Z,1010.63
2023-01-04T05:12:34.347Z,1010.64
2023-01-04T05:13:34.330Z,1010.57
2023-01-04T05:14:34.296Z,1010.61
2023-01-04T05:15:34.304Z,1010.57
2023-01-04T05:16:34.305Z,1010.57
2023-01-04T05:17:34.215Z,1010.56
2023-01-04T05:18:34.199Z,1010.57
2023-01-04T05:19:34.163Z,1010.50
2023-01-04T05:20:34.141Z,1010.53
2023-01-04T05:21:34.118Z,1010.54
2023-01-04T05:22:34.100Z,1010.55
2023-01-04T05:23:34.072Z,1010.58
2023-01-04T05:24:34.060Z,1010.51
2023-01-04T05:25:34.014Z,1010.56
2023-01-04T05:26:33.992Z,1010.49
2023-01-04T05:27:33.982Z,1010.40
2023-01-04T05:28:33.936Z,1010.40
2023-01-04T05:29:33.907Z,1010.48
2023-01-04T05:30:33.898Z,1010.48
2023-01-04T05:31:33.959Z,1010.44
2023-01-04T05:32:33.833Z,1010.36
2023-01-04T05:33:33.815Z,1010.51
2023-01-04T05:34:33.791Z,1010.39
2023-01-04T05:35:33.750Z,1010.42
2023-01-04T05:36:33.731Z,1010.38
2023-01-04T05:37:33.703Z,1010.33
2023-01-04T05:38:33.675Z,1010.24
2023-01-04T05:39:33.644Z,1010.17
2023-01-04T05:40:33.633Z,1010.32
2023-01-04T05:41:33.592Z,1010.31
2023-01-04T05:42:33.572Z,1010.31
2023-01-04T05:43:33.545Z,1010.26
2023-01-04T05:44:33.520Z,1010.34
2023-01-04T05:45:33.560Z,1010.20
2023-01-04T05:46:33.560Z,1010.31
2023-01-04T05:47:33.487Z,1010.20
2023-01-04T05:48:33.415Z,1010.19
2023-01-04T05:49:33.390Z,1010.14
2023-01-04T05:50:33.370Z,1010.16
2023-01-04T05:51:33.345Z,1010.12
2023-01-04T05:52:33.316Z,1010.07
2023-01-04T05:53:33.286Z,1010.10
2023-01-04T05:54:33.262Z,1010.00
2023-01-04T05:55:33.241Z,1010.02
2023-01-04T05:56:33.219Z,1010.02
2023-01-04T05:57:33.193Z,1010.00
2023-01-04T05:58:33.164Z,1009.96
2023-01-04T05:59:37.263Z,1010.05
2023-01-04T06:00:33.120Z,1009.96
2023-01-04T06:01:33.133Z,1009.94
2023-01-04T06:02:33.146Z,1009.83
2023-01-04T06:03:33.210Z,1009.85
2023-01-04T06:04:33.001Z,1009.84
2023-01-04T06:05:32.968Z,1009.83
2023-01-04T06:06:32.961Z,1009.86
2023-01-04T06:07:32.923Z,1009.85
2023-01-04T06:08:32.902Z,1009.87
2023-01-04T06:09:32.876Z,1009.92
2023-01-04T06:10:32.847Z,1009.94
2023-01-04T06:11:32.824Z,1009.89
2023-01-04T06:12:32.807Z,1009.85
2023-01-04T06:13:32.775Z,1009.77
2023-01-04T06:14:32.744Z,1009.87
2023-01-04T06:15:35.374Z,1009.86
2023-01-04T06:16:32.750Z,1009.85
2023-01-04T06:17:32.670Z,1009.86
2023-01-04T06:18:32.643Z,1009.84
2023-01-04T06:19:32.643Z,1009.82
2023-01-04T06:20:32.592Z,1009.73
2023-01-04T06:21:32.569Z,1009.84
2023-01-04T06:22:32.537Z,1009.82
2023-01-04T06:23:32.527Z,1009.83
2023-01-04T06:24:32.500Z,1009.84
2023-01-04T06:25:32.470Z,1009.88
2023-01-04T06:26:32.440Z,1009.73
2023-01-04T06:27:32.420Z,1009.75
2023-01-04T06:28:38.599Z,1009.70
2023-01-04T06:29:32.357Z,1009.72
2023-01-04T06:30:32.432Z,1009.75
2023-01-04T06:31:32.352Z,1009.64
2023-01-04T06:32:32.291Z,1009.70
2023-01-04T06:33:32.259Z,1009.59
2023-01-04T06:34:32.240Z,1009.66
2023-01-04T06:35:32.228Z,1009.56
2023-01-04T06:36:32.182Z,1009.58
2023-01-04T06:37:32.160Z,1009.61
2023-01-04T06:38:32.144Z,1009.56
2023-01-04T06:39:32.100Z,1009.63
2023-01-04T06:40:32.075Z,1009.57
2023-01-04T06:41:32.045Z,1009.60
2023-01-04T06:42:32.035Z,1009.56
2023-01-04T06:43:32.014Z,1009.56
2023-01-04T06:44:31.981Z,1009.55
2023-01-04T06:45:31.968Z,1009.58
2023-01-04T06:46:31.993Z,1009.50
2023-01-04T06:47:31.893Z,1009.52
2023-01-04T06:48:31.884Z,1009.44
2023-01-04T06:49:31.855Z,1009.48
2023-01-04T06:50:31.822Z,1009.48
2023-01-04T06:51:31.819Z,1009.46
2023-01-04T06:52:31.765Z,1009.51
2023-01-04T06:53:31.742Z,1009.51
2023-01-04T06:54:31.722Z,1009.46
2023-01-04T06:55:31.688Z,1009.45
2023-01-04T06:56:31.669Z,1009.45
2023-01-04T06:57:31.645Z,1009.37
2023-01-04T06:58:31.617Z,1009.44
2023-01-04T06:59:31.592Z,1009.38
2023-01-04T07:00:31.565Z,1009.41
2023-01-04T07:01:31.631Z,1009.42
2023-01-04T07:02:31.628Z,1009.39
2023-01-04T07:03:31.521Z,1009.32
2023-01-04T07:04:31.475Z,1009.34
2023-01-04T07:05:31.446Z,1009.31
2023-01-04T07:06:31.409Z,1009.30
2023-01-04T07:07:31.400Z,1009.32
2023-01-04T07:08:31.364Z,1009.34
2023-01-04T07:09:31.335Z,1009.40
2023-01-04T07:10:31.316Z,1009.30
2023-01-04T07:11:31.290Z,1009.36
2023-01-04T07:12:31.265Z,1009.30
2023-01-04T07:13:31.229Z,1009.35
2023-01-04T07:14:31.207Z,1009.37
2023-01-04T07:15:38.424Z,1009.38
2023-01-04T07:16:31.215Z,1009.40
2023-01-04T07:17:31.139Z,1009.38
2023-01-04T07:18:31.101Z,1009.36
2023-01-04T07:19:31.080Z,1009.37
2023-01-04T07:20:31.052Z,1009.46
2023-01-04T07:21:31.025Z,1009.46
2023-01-04T07:22:31.002Z,1009.44
2023-01-04T07:23:31.115Z,1009.50
2023-01-04T07:24:31.018Z,1009.42
2023-01-04T07:25:30.920Z,1009.40
2023-01-04T07:26:30.898Z,1009.34
2023-01-04T07:27:30.867Z,1009.41
2023-01-04T07:28:30.848Z,1009.43
2023-01-04T07:29:30.821Z,1009.43
2023-01-04T07:30:30.823Z,1009.38
2023-01-04T07:31:30.855Z,1009.41
2023-01-04T07:32:30.745Z,1009.39
2023-01-04T07:33:30.721Z,1009.49
2023-01-04T07:34:30.699Z,1009.48
2023-01-04T07:35:30.674Z,1009.47
2023-01-04T07:36:30.643Z,1009.50
2023-01-04T07:37:30.611Z,1009.33
2023-01-04T07:38:30.594Z,1009.37
2023-01-04T07:39:30.588Z,1009.35
2023-01-04T07:40:30.555Z,1009.31
2023-01-04T07:41:30.514Z,1009.32
2023-01-04T07:42:30.513Z,1009.22
2023-01-04T07:43:30.470Z,1009.24
2023-01-04T07:44:30.453Z,1009.23
2023-01-04T07:45:30.410Z,1009.11
2023-01-04T07:46:30.465Z,1009.12
2023-01-04T07:47:30.366Z,1009.08
2023-01-04T07:48:30.385Z,1009.07
2023-01-04T07:49:30.311Z,1009.13
2023-01-04T07:50:30.287Z,1009.15
2023-01-04T07:51:30.256Z,1009.23
2023-01-04T07:52:30.261Z,1009.25
2023-01-04T07:53:30.229Z,1009.28
2023-01-04T07:54:30.224Z,1009.27
2023-01-04T07:55:30.207Z,1009.27
2023-01-04T07:56:30.160Z,1009.24
2023-01-04T07:57:30.111Z,1009.23
2023-01-04T07:58:30.093Z,1009.15
2023-01-04T07:59:30.089Z,1009.21
2023-01-04T08:00:30.040Z,1009.21
2023-01-04T08:01:30.096Z,1009.18
2023-01-04T08:02:30.191Z,1009.16
2023-01-04T08:03:29.955Z,1009.10
2023-01-04T08:04:34.967Z,1009.10
2023-01-04T08:05:29.910Z,1009.07
2023-01-04T08:06:29.883Z,1009.14
2023-01-04T08:07:29.868Z,1009.17
2023-01-04T08:08:29.833Z,1009.10
2023-01-04T08:09:29.810Z,1009.15
2023-01-04T08:10:29.776Z,1009.15
2023-01-04T08:11:29.774Z,1009.09
2023-01-04T08:12:29.738Z,1009.15
2023-01-04T08:13:29.702Z,1009.10
2023-01-04T08:14:29.677Z,1009.13
2023-01-04T08:15:29.686Z,1009.08
2023-01-04T08:16:29.724Z,1009.21
2023-01-04T08:17:29.614Z,1009.18
2023-01-04T08:18:29.577Z,1009.13
2023-01-04T08:19:29.556Z,1009.17
2023-01-04T08:20:29.525Z,1009.04
2023-01-04T08:21:29.504Z,1009.14
2023-01-04T08:22:29.478Z,1009.16
2023-01-04T08:23:29.454Z,1009.19
2023-01-04T08:24:29.419Z,1009.18
2023-01-04T08:25:29.403Z,1009.10
2023-01-04T08:26:29.379Z,1009.10
2023-01-04T08:27:29.398Z,1009.07
2023-01-04T08:28:29.325Z,1009.09
2023-01-04T08:29:34.541Z,1009.02
2023-01-04T08:30:29.276Z,1009.07
2023-01-04T08:31:29.345Z,1009.07
2023-01-04T08:32:29.220Z,1009.02
2023-01-04T08:33:29.198Z,1009.12
2023-01-04T08:34:29.168Z,1009.03
2023-01-04T08:35:29.152Z,1008.92
2023-01-04T08:36:29.114Z,1009.05
2023-01-04T08:37:29.092Z,1009.06
2023-01-04T08:38:58.734Z,1009.09
2023-01-04T08:39:29.045Z,1008.98
2023-01-04T08:40:58.844Z,1009.10
2023-01-04T08:42:31.882Z,1009.06
2023-01-04T08:43:28.964Z,1009.10
2023-01-04T08:44:28.914Z,1008.96
2023-01-04T08:45:28.890Z,1009.11
2023-01-04T08:46:28.952Z,1009.04
2023-01-04T08:47:28.856Z,1009.06
2023-01-04T08:48:28.814Z,1008.96
2023-01-04T08:49:28.790Z,1008.98
2023-01-04T08:50:28.758Z,1009.01
2023-01-04T08:51:28.741Z,1009.03
2023-01-04T08:52:28.719Z,1008.95
2023-01-04T08:53:28.701Z,1008.93
2023-01-04T08:54:28.672Z,1008.95
2023-01-04T08:55:28.636Z,1008.91
2023-01-04T08:56:28.607Z,1008.88
2023-01-04T08:57:28.592Z,1008.89
2023-01-04T08:58:28.582Z,1008.77
2023-01-04T08:59:28.555Z,1008.78
2023-01-04T09:00:28.511Z,1008.80
2023-01-04T09:01:28.587Z,1008.63
2023-01-04T09:02:28.555Z,1008.80
2023-01-04T09:03:28.435Z,1008.74
2023-01-04T09:04:28.435Z,1008.77
2023-01-04T09:05:28.384Z,1008.81
2023-01-04T09:06:28.355Z,1008.75
2023-01-04T09:07:28.331Z,1008.73
2023-01-04T09:08:28.301Z,1008.69
2023-01-04T09:09:28.280Z,1008.63
2023-01-04T09:10:28.248Z,1008.66
2023-01-04T09:11:28.256Z,1008.65
2023-01-04T09:12:28.210Z,1008.59
2023-01-04T09:13:28.180Z,1008.67
2023-01-04T09:14:28.145Z,1008.52
2023-01-04T09:15:28.177Z,1008.62
2023-01-04T09:16:28.160Z,1008.61
2023-01-04T09:17:28.087Z,1008.56
2023-01-04T09:18:32.751Z,1008.55
2023-01-04T09:19:28.035Z,1008.66
2023-01-04T09:20:28.004Z,1008.56
2023-01-04T09:21:28.046Z,1008.55
2023-01-04T09:22:28.047Z,1008.53
2023-01-04T09:23:27.935Z,1008.53
2023-01-04T09:24:27.905Z,1008.60
2023-01-04T09:25:27.875Z,1008.56
2023-01-04T09:26:27.848Z,1008.56
2023-01-04T09:27:27.827Z,1008.55
2023-01-04T09:28:27.813Z,1008.56
2023-01-04T09:29:27.778Z,1008.45
2023-01-04T09:30:27.754Z,1008.55
2023-01-04T09:31:27.895Z,1008.67
2023-01-04T09:32:27.702Z,1008.53
2023-01-04T09:33:47.687Z,1008.50
2023-01-04T09:34:27.647Z,1008.51
2023-01-04T09:35:27.624Z,1008.63
2023-01-04T09:36:27.597Z,1008.56
2023-01-04T09:37:27.589Z,1008.50
2023-01-04T09:38:27.565Z,1008.51
2023-01-04T09:39:27.528Z,1008.54
2023-01-04T09:40:27.500Z,1008.52
2023-01-04T09:41:27.469Z,1008.51
2023-01-04T09:42:33.446Z,1008.54
2023-01-04T09:43:27.435Z,1008.45
2023-01-04T09:44:46.341Z,1008.52
2023-01-04T09:45:27.378Z,1008.47
2023-01-04T09:46:27.388Z,1008.53
2023-01-04T09:47:27.343Z,1008.37
2023-01-04T09:48:27.305Z,1008.43
2023-01-04T09:49:27.301Z,1008.46
2023-01-04T09:50:27.289Z,1008.38
2023-01-04T09:51:27.221Z,1008.42
2023-01-04T09:52:27.205Z,1008.43
2023-01-04T09:53:27.175Z,1008.47
2023-01-04T09:55:37.504Z,1008.42
2023-01-04T09:56:27.092Z,1008.42
2023-01-04T09:57:27.073Z,1008.39
2023-01-04T09:58:27.057Z,1008.58
2023-01-04T09:59:27.024Z,1008.45
2023-01-04T10:00:27.027Z,1008.41
2023-01-04T10:01:27.258Z,1008.48
2023-01-04T10:02:27.188Z,1008.44
2023-01-04T10:03:27.156Z,1008.56
2023-01-04T10:04:26.890Z,1008.41
2023-01-04T10:05:26.875Z,1008.39
2023-01-04T10:06:26.848Z,1008.47
2023-01-04T10:07:26.817Z,1008.36
2023-01-04T10:08:26.796Z,1008.38
2023-01-04T10:09:26.775Z,1008.40
2023-01-04T10:10:26.737Z,1008.40
2023-01-04T10:11:26.723Z,1008.33
2023-01-04T10:12:26.699Z,1008.36
2023-01-04T10:13:26.671Z,1008.38
2023-01-04T10:14:26.644Z,1008.25
2023-01-04T10:15:26.622Z,1008.36
2023-01-04T10:16:52.685Z,1008.31
2023-01-04T10:17:55.168Z,1008.34
2023-01-04T10:21:10.243Z,1008.23
2023-01-04T10:21:33.604Z,1008.33
2023-01-04T10:22:26.434Z,1008.28
2023-01-04T10:23:26.424Z,1008.25
2023-01-04T10:24:26.419Z,1008.15
2023-01-04T10:25:26.376Z,1008.15
2023-01-04T10:26:26.352Z,1008.17
2023-01-04T10:27:26.315Z,1008.12
2023-01-04T10:28:26.293Z,1008.24
2023-01-04T10:29:26.263Z,1008.28
2023-01-04T10:30:26.246Z,1008.19
2023-01-04T10:31:40.491Z,1008.11
2023-01-04T10:32:26.244Z,1008.08
2023-01-04T10:33:26.173Z,1008.14
2023-01-04T10:34:26.135Z,1008.13
2023-01-04T10:35:26.136Z,1008.17
2023-01-04T10:36:26.093Z,1008.09
2023-01-04T10:37:26.069Z,1008.09
2023-01-04T10:38:26.036Z,1008.10
2023-01-04T10:39:32.258Z,1008.16
2023-01-04T10:40:25.985Z,1008.08
2023-01-04T10:41:25.963Z,1008.01
2023-01-04T10:42:25.942Z,1008.20
2023-01-04T10:43:25.945Z,1008.05
2023-01-04T10:44:25.885Z,1008.11
2023-01-04T10:45:25.861Z,1008.07
2023-01-04T10:46:25.900Z,1008.12
2023-01-04T10:47:25.814Z,1008.05
2023-01-04T10:48:25.782Z,1008.03
2023-01-04T10:49:25.760Z,1008.14
2023-01-04T10:50:25.740Z,1008.05
2023-01-04T10:51:25.747Z,1007.98
2023-01-04T10:52:25.688Z,1008.04
2023-01-04T10:53:25.665Z,1007.95
2023-01-04T10:54:25.635Z,1007.99
2023-01-04T10:55:25.616Z,1007.95
2023-01-04T10:56:27.353Z,1007.87
2023-01-04T10:57:25.570Z,1007.84
2023-01-04T10:58:25.539Z,1008.02
2023-01-04T10:59:25.509Z,1007.91
2023-01-04T11:00:25.491Z,1007.87
2023-01-04T11:01:25.717Z,1007.76
2023-01-04T11:02:25.704Z,1007.87
2023-01-04T11:03:25.525Z,1007.89
2023-01-04T11:04:25.382Z,1007.81
2023-01-04T11:05:25.369Z,1007.78
2023-01-04T11:06:25.335Z,1007.86
2023-01-04T11:07:25.328Z,1007.89
2023-01-04T11:08:25.287Z,1007.78
2023-01-04T11:09:25.873Z,1007.86
2023-01-04T11:10:25.248Z,1007.78
2023-01-04T11:11:25.233Z,1007.77
2023-01-04T11:12:25.189Z,1007.82
2023-01-04T11:13:25.162Z,1007.82
2023-01-04T11:14:25.139Z,1007.86
2023-01-04T11:15:25.119Z,1007.81
2023-01-04T11:16:25.184Z,1007.86
2023-01-04T11:17:25.092Z,1007.83
2023-01-04T11:18:25.037Z,1007.82
2023-01-04T11:19:25.028Z,1007.85
2023-01-04T11:20:27.046Z,1007.77
2023-01-04T11:21:24.962Z,1007.74
2023-01-04T11:22:25.029Z,1007.83
2023-01-04T11:23:24.943Z,1007.75
2023-01-04T11:24:33.305Z,1007.87
2023-01-04T11:25:35.206Z,1007.82
2023-01-04T11:26:24.835Z,1007.88
2023-01-04T11:27:27.030Z,1007.80
2023-01-04T11:28:24.784Z,1007.77
2023-01-04T11:29:24.772Z,1007.80
2023-01-04T11:30:24.740Z,1007.75
2023-01-04T11:31:24.789Z,1007.69
2023-01-04T11:32:24.683Z,1007.59
2023-01-04T11:33:24.661Z,1007.78
2023-01-04T11:34:24.646Z,1007.71
2023-01-04T11:35:24.614Z,1007.72
2023-01-04T11:36:24.587Z,1007.63
2023-01-04T11:37:24.575Z,1007.70
2023-01-04T11:38:24.550Z,1007.69
2023-01-04T11:39:24.575Z,1007.53
2023-01-04T11:40:24.487Z,1007.60
2023-01-04T11:41:24.471Z,1007.60
2023-01-04T11:42:24.441Z,1007.59
2023-01-04T11:43:24.415Z,1007.64
2023-01-04T11:44:24.387Z,1007.60
2023-01-04T11:45:24.464Z,1007.65
2023-01-04T11:46:24.611Z,1007.60
2023-01-04T11:47:26.765Z,1007.66
2023-01-04T11:48:24.291Z,1007.59
2023-01-04T11:49:24.273Z,1007.50
2023-01-04T11:50:24.245Z,1007.57
2023-01-04T11:51:24.222Z,1007.48
2023-01-04T11:52:24.187Z,1007.46
2023-01-04T11:53:24.170Z,1007.51
2023-01-04T11:54:24.139Z,1007.52
2023-01-04T11:55:24.147Z,1007.57
2023-01-04T11:56:24.092Z,1007.46
2023-01-04T11:57:24.065Z,1007.51
2023-01-04T11:58:24.046Z,1007.45
2023-01-04T11:59:25.681Z,1007.36
2023-01-04T12:00:23.991Z,1007.33
2023-01-04T12:01:24.062Z,1007.34
2023-01-04T12:02:58.490Z,1007.36
2023-01-04T12:03:23.917Z,1007.39
2023-01-04T12:04:23.888Z,1007.35
2023-01-04T12:05:30.084Z,1007.34
2023-01-04T12:06:23.840Z,1007.38
2023-01-04T12:07:23.826Z,1007.25
2023-01-04T12:08:23.793Z,1007.21
2023-01-04T12:09:23.837Z,1007.27
2023-01-04T12:10:23.743Z,1007.22